sensor_id;sensor_type;location;lat;lon;timestamp;noise_LAeq;noise_LA_min;noise_LA_max;noise_LA01;noise_LA95
70740;Laerm;58330;51.888;11.052;2022-08-05T00:00:56;43.75;27.95;60.75;;
70740;Laerm;58330;51.888;11.052;2022-08-05T00:03:24;30.62;28.00;43.93;;
70740;Laerm;58330;51.888;11.052;2022-08-05T00:05:50;30.65;27.93;37.85;;
70740;Laerm;58330;51.888;11.052;2022-08-05T00:08:16;31.71;28.17;43.42;;
70740;Laerm;58330;51.888;11.052;2022-08-05T00:10:43;34.35;28.85;44.78;;
70740;Laerm;58330;51.888;11.052;2022-08-05T00:13:09;30.02;27.62;34.12;;
70740;Laerm;58330;51.888;11.052;2022-08-05T00:15:35;30.33;27.54;37.36;;
70740;Laerm;58330;51.888;11.052;2022-08-05T00:18:02;35.08;27.82;51.02;;
70740;Laerm;58330;51.888;11.052;2022-08-05T00:20:29;31.47;27.44;41.15;;
70740;Laerm;58330;51.888;11.052;2022-08-05T00:22:56;32.39;27.42;47.00;;
70740;Laerm;58330;51.888;11.052;2022-08-05T00:25:22;30.60;28.00;40.49;;
70740;Laerm;58330;51.888;11.052;2022-08-05T00:27:48;29.58;27.40;32.92;;
70740;Laerm;58330;51.888;11.052;2022-08-05T00:30:14;35.75;28.13;49.84;;
70740;Laerm;58330;51.888;11.052;2022-08-05T00:32:41;54.88;31.97;70.19;;
70740;Laerm;58330;51.888;11.052;2022-08-05T00:35:08;39.03;27.62;50.43;;
70740;Laerm;58330;51.888;11.052;2022-08-05T00:37:35;29.05;27.50;35.99;;
70740;Laerm;58330;51.888;11.052;2022-08-05T00:40:02;29.92;28.11;33.19;;
70740;Laerm;58330;51.888;11.052;2022-08-05T00:42:29;30.93;28.10;40.52;;
70740;Laerm;58330;51.888;11.052;2022-08-05T00:44:55;30.06;27.77;33.80;;
70740;Laerm;58330;51.888;11.052;2022-08-05T00:47:22;33.55;29.93;37.58;;
70740;Laerm;58330;51.888;11.052;2022-08-05T00:49:48;32.50;28.75;37.69;;
70740;Laerm;58330;51.888;11.052;2022-08-05T00:52:17;30.86;28.04;34.68;;
70740;Laerm;58330;51.888;11.052;2022-08-05T00:54:45;31.47;27.68;49.63;;
70740;Laerm;58330;51.888;11.052;2022-08-05T00:57:11;34.09;29.50;41.29;;
70740;Laerm;58330;51.888;11.052;2022-08-05T00:59:37;32.45;28.20;39.34;;
70740;Laerm;58330;51.888;11.052;2022-08-05T01:02:04;30.99;28.30;34.05;;
70740;Laerm;58330;51.888;11.052;2022-08-05T01:04:30;33.52;28.75;40.23;;
70740;Laerm;58330;51.888;11.052;2022-08-05T01:06:56;36.10;28.37;56.81;;
70740;Laerm;58330;51.888;11.052;2022-08-05T01:09:23;32.89;28.14;53.94;;
70740;Laerm;58330;51.888;11.052;2022-08-05T01:11:52;31.32;28.03;37.24;;
70740;Laerm;58330;51.888;11.052;2022-08-05T01:14:23;32.66;28.32;37.65;;
70740;Laerm;58330;51.888;11.052;2022-08-05T01:16:51;32.52;29.33;38.38;;
70740;Laerm;58330;51.888;11.052;2022-08-05T01:19:23;44.70;29.75;61.70;;
70740;Laerm;58330;51.888;11.052;2022-08-05T01:21:54;31.65;27.96;41.36;;
70740;Laerm;58330;51.888;11.052;2022-08-05T01:24:36;33.56;28.25;48.82;;
70740;Laerm;58330;51.888;11.052;2022-08-05T01:27:11;30.12;28.10;34.09;;
70740;Laerm;58330;51.888;11.052;2022-08-05T01:29:40;31.22;28.21;55.03;;
70740;Laerm;58330;51.888;11.052;2022-08-05T01:32:10;30.43;28.30;35.49;;
70740;Laerm;58330;51.888;11.052;2022-08-05T01:34:42;30.37;28.37;36.51;;
70740;Laerm;58330;51.888;11.052;2022-08-05T01:37:11;33.14;29.94;36.68;;
70740;Laerm;58330;51.888;11.052;2022-08-05T01:39:40;34.86;29.14;43.13;;
70740;Laerm;58330;51.888;11.052;2022-08-05T01:42:10;32.53;29.06;39.75;;
70740;Laerm;58330;51.888;11.052;2022-08-05T01:44:39;33.07;29.00;36.58;;
70740;Laerm;58330;51.888;11.052;2022-08-05T01:47:06;35.92;30.60;43.41;;
70740;Laerm;58330;51.888;11.052;2022-08-05T01:49:33;39.73;31.02;46.65;;
70740;Laerm;58330;51.888;11.052;2022-08-05T01:52:01;41.47;36.07;47.69;;
70740;Laerm;58330;51.888;11.052;2022-08-05T01:54:30;45.59;38.58;53.50;;
70740;Laerm;58330;51.888;11.052;2022-08-05T01:56:57;47.06;36.59;54.53;;
70740;Laerm;58330;51.888;11.052;2022-08-05T01:59:25;40.80;32.73;49.35;;
70740;Laerm;58330;51.888;11.052;2022-08-05T02:01:53;43.41;36.86;48.72;;
70740;Laerm;58330;51.888;11.052;2022-08-05T02:04:21;43.85;38.55;51.82;;
70740;Laerm;58330;51.888;11.052;2022-08-05T02:06:49;42.61;32.45;50.24;;
70740;Laerm;58330;51.888;11.052;2022-08-05T02:09:15;36.48;30.52;42.86;;
70740;Laerm;58330;51.888;11.052;2022-08-05T02:11:44;38.84;32.53;44.95;;
70740;Laerm;58330;51.888;11.052;2022-08-05T02:14:13;43.26;39.40;50.87;;
70740;Laerm;58330;51.888;11.052;2022-08-05T02:16:43;42.11;33.98;48.56;;
70740;Laerm;58330;51.888;11.052;2022-08-05T02:19:12;36.84;31.50;42.95;;
70740;Laerm;58330;51.888;11.052;2022-08-05T02:21:45;40.88;32.95;47.09;;
70740;Laerm;58330;51.888;11.052;2022-08-05T02:24:13;41.44;32.48;48.61;;
70740;Laerm;58330;51.888;11.052;2022-08-05T02:26:43;41.47;33.26;49.46;;
70740;Laerm;58330;51.888;11.052;2022-08-05T02:29:11;41.40;33.21;49.10;;
70740;Laerm;58330;51.888;11.052;2022-08-05T02:31:38;43.31;33.56;53.04;;
70740;Laerm;58330;51.888;11.052;2022-08-05T02:34:06;40.31;31.66;58.58;;
70740;Laerm;58330;51.888;11.052;2022-08-05T02:36:35;39.69;32.37;49.35;;
70740;Laerm;58330;51.888;11.052;2022-08-05T02:39:03;40.02;32.15;47.15;;
70740;Laerm;58330;51.888;11.052;2022-08-05T02:41:31;38.36;31.07;47.63;;
70740;Laerm;58330;51.888;11.052;2022-08-05T02:43:58;43.51;34.57;51.82;;
70740;Laerm;58330;51.888;11.052;2022-08-05T02:46:28;36.38;30.65;45.49;;
70740;Laerm;58330;51.888;11.052;2022-08-05T02:48:54;36.61;32.12;46.26;;
70740;Laerm;58330;51.888;11.052;2022-08-05T02:51:21;41.03;35.02;47.06;;
70740;Laerm;58330;51.888;11.052;2022-08-05T02:53:50;37.57;33.25;42.59;;
70740;Laerm;58330;51.888;11.052;2022-08-05T02:56:16;41.91;31.99;49.91;;
70740;Laerm;58330;51.888;11.052;2022-08-05T02:58:43;42.83;37.30;50.12;;
70740;Laerm;58330;51.888;11.052;2022-08-05T03:01:11;42.25;35.16;48.59;;
70740;Laerm;58330;51.888;11.052;2022-08-05T03:03:39;40.56;32.88;49.63;;
70740;Laerm;58330;51.888;11.052;2022-08-05T03:06:07;43.62;34.41;50.81;;
70740;Laerm;58330;51.888;11.052;2022-08-05T03:08:35;41.74;37.30;49.60;;
70740;Laerm;58330;51.888;11.052;2022-08-05T03:11:03;39.10;33.00;49.94;;
70740;Laerm;58330;51.888;11.052;2022-08-05T03:13:30;49.84;31.52;67.33;;
70740;Laerm;58330;51.888;11.052;2022-08-05T03:15:56;40.08;32.15;56.29;;
70740;Laerm;58330;51.888;11.052;2022-08-05T03:18:22;42.99;31.83;63.14;;
70740;Laerm;58330;51.888;11.052;2022-08-05T03:20:49;47.02;31.18;62.03;;
70740;Laerm;58330;51.888;11.052;2022-08-05T03:23:15;50.49;31.85;64.05;;
70740;Laerm;58330;51.888;11.052;2022-08-05T03:25:41;39.57;31.88;51.30;;
70740;Laerm;58330;51.888;11.052;2022-08-05T03:28:09;39.33;32.65;52.66;;
70740;Laerm;58330;51.888;11.052;2022-08-05T03:30:36;39.15;31.09;50.30;;
70740;Laerm;58330;51.888;11.052;2022-08-05T03:33:03;46.24;32.64;61.06;;
70740;Laerm;58330;51.888;11.052;2022-08-05T03:35:29;40.05;32.40;49.96;;
70740;Laerm;58330;51.888;11.052;2022-08-05T03:37:57;47.03;33.35;60.69;;
70740;Laerm;58330;51.888;11.052;2022-08-05T03:40:23;44.98;34.50;57.56;;
70740;Laerm;58330;51.888;11.052;2022-08-05T03:42:50;44.22;35.18;50.39;;
70740;Laerm;58330;51.888;11.052;2022-08-05T03:45:17;47.70;39.30;62.79;;
70740;Laerm;58330;51.888;11.052;2022-08-05T03:47:44;42.41;36.10;50.38;;
70740;Laerm;58330;51.888;11.052;2022-08-05T03:50:10;47.57;34.73;63.54;;
70740;Laerm;58330;51.888;11.052;2022-08-05T03:52:37;43.50;36.77;50.36;;
70740;Laerm;58330;51.888;11.052;2022-08-05T03:55:07;51.53;37.74;67.42;;
70740;Laerm;58330;51.888;11.052;2022-08-05T03:57:35;46.61;37.86;59.39;;
70740;Laerm;58330;51.888;11.052;2022-08-05T04:00:04;48.84;36.24;63.21;;
70740;Laerm;58330;51.888;11.052;2022-08-05T04:02:33;43.96;34.90;55.26;;
70740;Laerm;58330;51.888;11.052;2022-08-05T04:05:00;44.86;38.56;59.96;;
70740;Laerm;58330;51.888;11.052;2022-08-05T04:07:27;44.50;38.17;55.13;;
70740;Laerm;58330;51.888;11.052;2022-08-05T04:09:54;43.53;36.99;48.56;;
70740;Laerm;58330;51.888;11.052;2022-08-05T04:12:21;47.07;42.00;59.11;;
70740;Laerm;58330;51.888;11.052;2022-08-05T04:14:47;45.74;39.37;56.41;;
70740;Laerm;58330;51.888;11.052;2022-08-05T04:17:14;47.32;42.52;50.88;;
70740;Laerm;58330;51.888;11.052;2022-08-05T04:19:42;62.47;40.68;68.57;;
70740;Laerm;58330;51.888;11.052;2022-08-05T04:22:08;62.83;58.01;68.28;;
70740;Laerm;58330;51.888;11.052;2022-08-05T04:24:35;57.78;53.07;63.45;;
70740;Laerm;58330;51.888;11.052;2022-08-05T04:27:01;55.20;49.75;63.70;;
70740;Laerm;58330;51.888;11.052;2022-08-05T04:29:27;52.58;50.14;57.43;;
70740;Laerm;58330;51.888;11.052;2022-08-05T04:31:54;50.69;45.35;56.05;;
70740;Laerm;58330;51.888;11.052;2022-08-05T04:34:20;48.83;43.92;55.78;;
70740;Laerm;58330;51.888;11.052;2022-08-05T04:36:48;50.22;45.21;56.50;;
70740;Laerm;58330;51.888;11.052;2022-08-05T04:39:14;54.97;43.77;68.50;;
70740;Laerm;58330;51.888;11.052;2022-08-05T04:41:40;50.02;44.40;62.92;;
70740;Laerm;58330;51.888;11.052;2022-08-05T04:44:06;54.01;45.84;67.45;;
70740;Laerm;58330;51.888;11.052;2022-08-05T04:46:33;50.56;47.14;57.20;;
70740;Laerm;58330;51.888;11.052;2022-08-05T04:48:59;51.87;47.77;59.53;;
70740;Laerm;58330;51.888;11.052;2022-08-05T04:51:25;59.50;50.23;71.95;;
70740;Laerm;58330;51.888;11.052;2022-08-05T04:53:53;51.90;48.41;59.26;;
70740;Laerm;58330;51.888;11.052;2022-08-05T04:56:19;55.63;51.56;63.03;;
70740;Laerm;58330;51.888;11.052;2022-08-05T04:58:46;57.75;54.67;64.77;;
70740;Laerm;58330;51.888;11.052;2022-08-05T05:01:12;55.95;53.23;60.09;;
70740;Laerm;58330;51.888;11.052;2022-08-05T05:03:38;55.75;52.40;65.43;;
70740;Laerm;58330;51.888;11.052;2022-08-05T05:06:08;52.17;49.24;55.90;;
70740;Laerm;58330;51.888;11.052;2022-08-05T05:08:35;52.86;49.86;56.70;;
70740;Laerm;58330;51.888;11.052;2022-08-05T05:11:03;52.17;45.68;62.89;;
70740;Laerm;58330;51.888;11.052;2022-08-05T05:13:29;50.12;43.06;61.32;;
70740;Laerm;58330;51.888;11.052;2022-08-05T05:15:56;44.47;40.41;55.59;;
70740;Laerm;58330;51.888;11.052;2022-08-05T05:18:23;48.11;41.65;62.28;;
70740;Laerm;58330;51.888;11.052;2022-08-05T05:20:49;61.28;42.74;80.31;;
70740;Laerm;58330;51.888;11.052;2022-08-05T05:23:16;48.52;42.49;67.86;;
70740;Laerm;58330;51.888;11.052;2022-08-05T05:25:43;52.95;38.19;68.03;;
70740;Laerm;58330;51.888;11.052;2022-08-05T05:28:11;49.04;35.73;64.19;;
70740;Laerm;58330;51.888;11.052;2022-08-05T05:30:37;44.84;35.72;55.00;;
70740;Laerm;58330;51.888;11.052;2022-08-05T05:33:05;50.24;36.30;63.23;;
70740;Laerm;58330;51.888;11.052;2022-08-05T05:35:31;43.90;36.15;55.62;;
70740;Laerm;58330;51.888;11.052;2022-08-05T05:37:58;49.27;37.95;60.11;;
70740;Laerm;58330;51.888;11.052;2022-08-05T05:40:26;51.22;37.82;66.36;;
70740;Laerm;58330;51.888;11.052;2022-08-05T05:42:53;49.85;36.17;62.84;;
70740;Laerm;58330;51.888;11.052;2022-08-05T05:45:21;47.72;34.42;59.62;;
70740;Laerm;58330;51.888;11.052;2022-08-05T05:47:47;50.89;37.39;61.77;;
70740;Laerm;58330;51.888;11.052;2022-08-05T05:50:14;45.26;34.53;60.62;;
70740;Laerm;58330;51.888;11.052;2022-08-05T05:52:41;49.01;32.33;66.01;;
70740;Laerm;58330;51.888;11.052;2022-08-05T05:55:08;46.16;36.35;59.59;;
70740;Laerm;58330;51.888;11.052;2022-08-05T05:57:35;46.15;34.85;62.27;;
70740;Laerm;58330;51.888;11.052;2022-08-05T06:00:01;44.79;34.51;56.92;;
70740;Laerm;58330;51.888;11.052;2022-08-05T06:02:29;44.75;32.36;61.86;;
70740;Laerm;58330;51.888;11.052;2022-08-05T06:04:56;45.45;36.47;58.59;;
70740;Laerm;58330;51.888;11.052;2022-08-05T06:07:22;46.98;33.10;57.39;;
70740;Laerm;58330;51.888;11.052;2022-08-05T06:09:48;45.12;32.66;58.16;;
70740;Laerm;58330;51.888;11.052;2022-08-05T06:12:15;50.12;33.42;63.81;;
70740;Laerm;58330;51.888;11.052;2022-08-05T06:14:41;48.27;36.25;65.28;;
70740;Laerm;58330;51.888;11.052;2022-08-05T06:17:08;50.34;39.27;66.25;;
70740;Laerm;58330;51.888;11.052;2022-08-05T06:19:36;51.68;34.90;67.24;;
70740;Laerm;58330;51.888;11.052;2022-08-05T06:22:02;45.43;32.32;59.09;;
70740;Laerm;58330;51.888;11.052;2022-08-05T06:24:29;48.35;36.17;59.34;;
70740;Laerm;58330;51.888;11.052;2022-08-05T06:26:55;48.07;33.17;61.50;;
70740;Laerm;58330;51.888;11.052;2022-08-05T06:29:22;45.82;33.06;58.31;;
70740;Laerm;58330;51.888;11.052;2022-08-05T06:31:48;46.62;36.94;59.59;;
70740;Laerm;58330;51.888;11.052;2022-08-05T06:34:14;47.97;32.97;63.39;;
70740;Laerm;58330;51.888;11.052;2022-08-05T06:36:42;47.09;34.06;62.17;;
70740;Laerm;58330;51.888;11.052;2022-08-05T06:39:08;44.03;33.50;55.97;;
70740;Laerm;58330;51.888;11.052;2022-08-05T06:41:34;49.09;38.83;61.05;;
70740;Laerm;58330;51.888;11.052;2022-08-05T06:44:01;54.36;42.38;67.51;;
70740;Laerm;58330;51.888;11.052;2022-08-05T06:46:27;53.61;47.97;63.40;;
70740;Laerm;58330;51.888;11.052;2022-08-05T06:48:53;54.06;50.50;62.56;;
70740;Laerm;58330;51.888;11.052;2022-08-05T06:51:20;55.00;51.44;70.04;;
70740;Laerm;58330;51.888;11.052;2022-08-05T06:53:48;55.37;51.40;66.08;;
70740;Laerm;58330;51.888;11.052;2022-08-05T06:56:14;55.59;48.29;65.41;;
70740;Laerm;58330;51.888;11.052;2022-08-05T06:58:40;50.90;42.95;66.33;;
70740;Laerm;58330;51.888;11.052;2022-08-05T07:01:07;55.70;42.80;69.51;;
70740;Laerm;58330;51.888;11.052;2022-08-05T07:03:33;52.18;49.83;55.36;;
70740;Laerm;58330;51.888;11.052;2022-08-05T07:06:01;55.70;46.53;69.14;;
70740;Laerm;58330;51.888;11.052;2022-08-05T07:08:28;47.16;41.51;55.81;;
70740;Laerm;58330;51.888;11.052;2022-08-05T07:10:56;48.18;40.61;62.58;;
70740;Laerm;58330;51.888;11.052;2022-08-05T07:13:22;51.10;41.40;62.23;;
70740;Laerm;58330;51.888;11.052;2022-08-05T07:16:06;47.57;43.49;61.84;;
70740;Laerm;58330;51.888;11.052;2022-08-05T07:19:02;50.39;39.06;64.67;;
70740;Laerm;58330;51.888;11.052;2022-08-05T07:21:28;51.97;37.65;61.50;;
70740;Laerm;58330;51.888;11.052;2022-08-05T07:23:55;50.78;36.27;63.81;;
70740;Laerm;58330;51.888;11.052;2022-08-05T07:26:23;50.78;38.61;63.31;;
70740;Laerm;58330;51.888;11.052;2022-08-05T07:28:49;49.93;37.54;62.40;;
70740;Laerm;58330;51.888;11.052;2022-08-05T07:31:16;47.46;37.81;62.00;;
70740;Laerm;58330;51.888;11.052;2022-08-05T07:33:42;47.96;36.74;60.53;;
70740;Laerm;58330;51.888;11.052;2022-08-05T07:36:09;48.72;36.77;63.36;;
70740;Laerm;58330;51.888;11.052;2022-08-05T07:38:36;48.57;35.81;59.37;;
70740;Laerm;58330;51.888;11.052;2022-08-05T07:41:02;50.98;37.05;63.21;;
70740;Laerm;58330;51.888;11.052;2022-08-05T07:43:31;50.18;36.82;60.70;;
70740;Laerm;58330;51.888;11.052;2022-08-05T07:45:57;48.61;39.44;67.65;;
70740;Laerm;58330;51.888;11.052;2022-08-05T07:48:23;43.68;34.60;52.87;;
70740;Laerm;58330;51.888;11.052;2022-08-05T07:50:49;52.69;36.93;68.65;;
70740;Laerm;58330;51.888;11.052;2022-08-05T07:53:16;50.29;38.86;61.54;;
70740;Laerm;58330;51.888;11.052;2022-08-05T07:55:42;49.77;37.74;60.51;;
70740;Laerm;58330;51.888;11.052;2022-08-05T07:58:09;43.48;36.76;49.86;;
70740;Laerm;58330;51.888;11.052;2022-08-05T08:00:36;43.13;34.14;51.07;;
70740;Laerm;58330;51.888;11.052;2022-08-05T08:03:03;49.46;35.40;61.29;;
70740;Laerm;58330;51.888;11.052;2022-08-05T08:05:34;49.37;36.19;60.90;;
70740;Laerm;58330;51.888;11.052;2022-08-05T08:08:03;48.19;39.94;57.81;;
70740;Laerm;58330;51.888;11.052;2022-08-05T08:10:29;49.50;39.30;61.27;;
70740;Laerm;58330;51.888;11.052;2022-08-05T08:12:56;46.17;38.28;61.03;;
70740;Laerm;58330;51.888;11.052;2022-08-05T08:15:22;48.88;34.39;61.27;;
70740;Laerm;58330;51.888;11.052;2022-08-05T08:17:50;50.68;36.00;62.99;;
70740;Laerm;58330;51.888;11.052;2022-08-05T08:20:16;45.97;37.91;59.83;;
70740;Laerm;58330;51.888;11.052;2022-08-05T08:22:42;51.15;35.26;68.02;;
70740;Laerm;58330;51.888;11.052;2022-08-05T08:25:09;44.97;34.97;57.07;;
70740;Laerm;58330;51.888;11.052;2022-08-05T08:27:35;50.24;37.35;59.31;;
70740;Laerm;58330;51.888;11.052;2022-08-05T08:30:01;52.27;37.39;65.98;;
70740;Laerm;58330;51.888;11.052;2022-08-05T08:32:28;46.32;36.21;58.49;;
70740;Laerm;58330;51.888;11.052;2022-08-05T08:34:56;44.07;36.40;54.04;;
70740;Laerm;58330;51.888;11.052;2022-08-05T08:37:22;47.82;37.85;60.22;;
70740;Laerm;58330;51.888;11.052;2022-08-05T08:39:48;50.38;35.09;65.56;;
70740;Laerm;58330;51.888;11.052;2022-08-05T08:42:15;48.63;37.70;61.09;;
70740;Laerm;58330;51.888;11.052;2022-08-05T08:44:41;41.07;33.68;50.55;;
70740;Laerm;58330;51.888;11.052;2022-08-05T08:47:09;47.00;37.49;60.65;;
70740;Laerm;58330;51.888;11.052;2022-08-05T08:49:36;50.73;36.62;66.25;;
70740;Laerm;58330;51.888;11.052;2022-08-05T08:52:07;48.88;36.53;66.91;;
70740;Laerm;58330;51.888;11.052;2022-08-05T08:54:36;50.31;37.82;62.45;;
70740;Laerm;58330;51.888;11.052;2022-08-05T08:57:03;48.57;39.39;61.61;;
70740;Laerm;58330;51.888;11.052;2022-08-05T08:59:33;49.94;35.08;62.45;;
70740;Laerm;58330;51.888;11.052;2022-08-05T09:01:59;48.63;34.14;61.12;;
70740;Laerm;58330;51.888;11.052;2022-08-05T09:04:26;51.61;38.67;61.04;;
70740;Laerm;58330;51.888;11.052;2022-08-05T09:06:52;66.68;36.37;77.41;;
70740;Laerm;58330;51.888;11.052;2022-08-05T09:09:20;45.99;37.05;58.97;;
70740;Laerm;58330;51.888;11.052;2022-08-05T09:11:46;52.64;37.79;66.02;;
70740;Laerm;58330;51.888;11.052;2022-08-05T09:14:13;47.59;35.03;61.37;;
70740;Laerm;58330;51.888;11.052;2022-08-05T09:16:39;49.07;36.61;61.75;;
70740;Laerm;58330;51.888;11.052;2022-08-05T09:19:06;51.96;37.43;64.06;;
70740;Laerm;58330;51.888;11.052;2022-08-05T09:21:32;54.64;37.19;70.39;;
70740;Laerm;58330;51.888;11.052;2022-08-05T09:24:02;50.89;37.06;63.67;;
70740;Laerm;58330;51.888;11.052;2022-08-05T09:26:30;48.91;37.15;59.03;;
70740;Laerm;58330;51.888;11.052;2022-08-05T09:28:58;49.66;39.40;62.99;;
70740;Laerm;58330;51.888;11.052;2022-08-05T09:31:24;46.59;35.06;57.89;;
70740;Laerm;58330;51.888;11.052;2022-08-05T09:33:52;43.18;36.89;53.69;;
70740;Laerm;58330;51.888;11.052;2022-08-05T09:36:18;47.35;35.94;62.11;;
70740;Laerm;58330;51.888;11.052;2022-08-05T09:38:54;44.32;36.25;55.47;;
70740;Laerm;58330;51.888;11.052;2022-08-05T09:41:21;50.74;38.90;61.94;;
70740;Laerm;58330;51.888;11.052;2022-08-05T09:43:48;45.53;35.89;60.39;;
70740;Laerm;58330;51.888;11.052;2022-08-05T09:46:24;50.89;38.27;64.04;;
70740;Laerm;58330;51.888;11.052;2022-08-05T09:48:51;47.09;38.49;57.49;;
70740;Laerm;58330;51.888;11.052;2022-08-05T09:51:26;44.95;32.38;56.09;;
70740;Laerm;58330;51.888;11.052;2022-08-05T09:53:55;46.88;36.00;58.53;;
70740;Laerm;58330;51.888;11.052;2022-08-05T09:56:25;49.66;35.69;66.91;;
70740;Laerm;58330;51.888;11.052;2022-08-05T09:58:56;47.12;37.76;60.99;;
70740;Laerm;58330;51.888;11.052;2022-08-05T10:01:23;48.93;36.09;61.53;;
70740;Laerm;58330;51.888;11.052;2022-08-05T10:03:53;48.89;37.02;60.57;;
70740;Laerm;58330;51.888;11.052;2022-08-05T10:06:20;52.43;35.79;64.31;;
70740;Laerm;58330;51.888;11.052;2022-08-05T10:08:46;52.48;35.33;67.78;;
70740;Laerm;58330;51.888;11.052;2022-08-05T10:11:13;49.59;36.47;62.54;;
70740;Laerm;58330;51.888;11.052;2022-08-05T10:13:40;49.40;38.79;61.20;;
70740;Laerm;58330;51.888;11.052;2022-08-05T10:18:53;49.63;36.59;66.92;;
70740;Laerm;58330;51.888;11.052;2022-08-05T10:21:20;48.18;36.55;61.98;;
70740;Laerm;58330;51.888;11.052;2022-08-05T10:23:46;52.31;38.32;64.37;;
70740;Laerm;58330;51.888;11.052;2022-08-05T10:26:13;49.04;35.11;64.83;;
70740;Laerm;58330;51.888;11.052;2022-08-05T10:28:39;45.03;35.08;58.34;;
70740;Laerm;58330;51.888;11.052;2022-08-05T10:31:06;48.37;36.83;64.53;;
70740;Laerm;58330;51.888;11.052;2022-08-05T10:33:33;47.48;33.96;61.34;;
70740;Laerm;58330;51.888;11.052;2022-08-05T10:36:01;50.91;35.84;74.51;;
70740;Laerm;58330;51.888;11.052;2022-08-05T10:38:29;48.14;35.70;66.86;;
70740;Laerm;58330;51.888;11.052;2022-08-05T10:40:57;43.62;35.46;56.12;;
70740;Laerm;58330;51.888;11.052;2022-08-05T10:43:34;45.62;36.29;64.01;;
70740;Laerm;58330;51.888;11.052;2022-08-05T10:46:02;44.98;36.35;55.27;;
70740;Laerm;58330;51.888;11.052;2022-08-05T10:48:32;46.14;34.98;62.81;;
70740;Laerm;58330;51.888;11.052;2022-08-05T10:51:02;43.28;36.30;50.44;;
70740;Laerm;58330;51.888;11.052;2022-08-05T10:53:39;50.02;36.66;63.28;;
70740;Laerm;58330;51.888;11.052;2022-08-05T10:56:06;50.51;32.92;65.32;;
70740;Laerm;58330;51.888;11.052;2022-08-05T10:58:33;48.05;35.31;62.45;;
70740;Laerm;58330;51.888;11.052;2022-08-05T11:01:03;43.73;33.72;55.41;;
70740;Laerm;58330;51.888;11.052;2022-08-05T11:03:29;45.92;35.16;59.23;;
70740;Laerm;58330;51.888;11.052;2022-08-05T11:06:04;46.32;34.27;60.90;;
70740;Laerm;58330;51.888;11.052;2022-08-05T11:08:31;46.78;35.53;57.86;;
70740;Laerm;58330;51.888;11.052;2022-08-05T11:13:40;48.14;39.32;60.92;;
70740;Laerm;58330;51.888;11.052;2022-08-05T11:16:19;48.64;38.25;61.32;;
70740;Laerm;58330;51.888;11.052;2022-08-05T11:18:46;49.95;40.87;60.90;;
70740;Laerm;58330;51.888;11.052;2022-08-05T11:23:55;50.10;41.10;67.07;;
70740;Laerm;58330;51.888;11.052;2022-08-05T11:26:22;50.47;41.02;62.79;;
70740;Laerm;58330;51.888;11.052;2022-08-05T11:28:49;53.49;40.91;65.56;;
70740;Laerm;58330;51.888;11.052;2022-08-05T11:31:29;51.07;41.16;62.57;;
70740;Laerm;58330;51.888;11.052;2022-08-05T11:34:02;52.32;38.42;63.50;;
70740;Laerm;58330;51.888;11.052;2022-08-05T11:42:08;45.44;39.30;55.47;;
70740;Laerm;58330;51.888;11.052;2022-08-05T11:44:35;45.51;37.70;54.85;;
70740;Laerm;58330;51.888;11.052;2022-08-05T11:47:03;49.93;36.42;62.02;;
70740;Laerm;58330;51.888;11.052;2022-08-05T11:49:29;48.08;39.74;60.92;;
70740;Laerm;58330;51.888;11.052;2022-08-05T11:51:56;47.53;39.94;57.66;;
70740;Laerm;58330;51.888;11.052;2022-08-05T11:54:22;48.58;36.99;62.59;;
70740;Laerm;58330;51.888;11.052;2022-08-05T11:56:51;42.30;35.89;49.53;;
70740;Laerm;58330;51.888;11.052;2022-08-05T11:59:19;49.15;38.40;64.13;;
70740;Laerm;58330;51.888;11.052;2022-08-05T12:01:55;45.89;38.43;55.79;;
70740;Laerm;58330;51.888;11.052;2022-08-05T12:04:23;45.68;37.65;58.63;;
70740;Laerm;58330;51.888;11.052;2022-08-05T12:06:52;49.56;38.81;62.09;;
70740;Laerm;58330;51.888;11.052;2022-08-05T12:09:20;46.34;38.49;56.91;;
70740;Laerm;58330;51.888;11.052;2022-08-05T12:11:48;46.81;38.02;61.23;;
70740;Laerm;58330;51.888;11.052;2022-08-05T12:14:14;44.49;36.55;55.53;;
70740;Laerm;58330;51.888;11.052;2022-08-05T12:16:43;44.38;38.40;61.50;;
70740;Laerm;58330;51.888;11.052;2022-08-05T12:19:11;54.62;41.28;68.81;;
70740;Laerm;58330;51.888;11.052;2022-08-05T12:21:41;51.84;41.41;62.25;;
70740;Laerm;58330;51.888;11.052;2022-08-05T12:24:09;48.17;37.02;60.66;;
70740;Laerm;58330;51.888;11.052;2022-08-05T12:26:36;46.34;39.76;58.65;;
70740;Laerm;58330;51.888;11.052;2022-08-05T12:29:03;47.73;41.41;57.12;;
70740;Laerm;58330;51.888;11.052;2022-08-05T12:31:30;48.84;40.11;60.22;;
70740;Laerm;58330;51.888;11.052;2022-08-05T12:33:58;49.89;40.15;60.72;;
70740;Laerm;58330;51.888;11.052;2022-08-05T12:36:24;49.72;40.80;61.69;;
70740;Laerm;58330;51.888;11.052;2022-08-05T12:38:51;52.70;39.51;63.91;;
70740;Laerm;58330;51.888;11.052;2022-08-05T12:41:18;48.31;41.70;55.73;;
70740;Laerm;58330;51.888;11.052;2022-08-05T12:43:47;49.92;40.48;62.70;;
70740;Laerm;58330;51.888;11.052;2022-08-05T12:46:19;47.28;41.77;53.71;;
70740;Laerm;58330;51.888;11.052;2022-08-05T12:48:45;47.95;41.18;55.24;;
70740;Laerm;58330;51.888;11.052;2022-08-05T12:51:14;48.09;41.17;61.27;;
70740;Laerm;58330;51.888;11.052;2022-08-05T12:53:43;49.93;40.15;60.36;;
70740;Laerm;58330;51.888;11.052;2022-08-05T12:56:16;46.34;38.81;56.54;;
70740;Laerm;58330;51.888;11.052;2022-08-05T12:58:43;50.06;41.21;60.54;;
70740;Laerm;58330;51.888;11.052;2022-08-05T13:01:12;45.05;39.72;55.92;;
70740;Laerm;58330;51.888;11.052;2022-08-05T13:03:38;52.20;40.94;65.19;;
70740;Laerm;58330;51.888;11.052;2022-08-05T13:06:05;51.23;38.79;69.81;;
70740;Laerm;58330;51.888;11.052;2022-08-05T13:08:33;49.58;40.72;61.50;;
70740;Laerm;58330;51.888;11.052;2022-08-05T13:11:02;52.05;41.24;61.93;;
70740;Laerm;58330;51.888;11.052;2022-08-05T13:13:28;56.42;51.17;79.02;;
70740;Laerm;58330;51.888;11.052;2022-08-05T13:15:55;56.08;50.74;65.05;;
70740;Laerm;58330;51.888;11.052;2022-08-05T13:18:21;53.46;47.40;70.78;;
70740;Laerm;58330;51.888;11.052;2022-08-05T13:20:48;53.86;44.97;64.25;;
70740;Laerm;58330;51.888;11.052;2022-08-05T13:23:14;52.00;43.18;72.11;;
70740;Laerm;58330;51.888;11.052;2022-08-05T13:25:42;53.44;41.66;62.84;;
70740;Laerm;58330;51.888;11.052;2022-08-05T13:28:08;48.96;40.17;59.94;;
70740;Laerm;58330;51.888;11.052;2022-08-05T13:30:35;53.03;38.68;64.46;;
70740;Laerm;58330;51.888;11.052;2022-08-05T13:33:01;52.09;41.40;66.74;;
70740;Laerm;58330;51.888;11.052;2022-08-05T13:35:28;51.97;39.92;63.48;;
70740;Laerm;58330;51.888;11.052;2022-08-05T13:37:54;50.14;41.78;62.48;;
70740;Laerm;58330;51.888;11.052;2022-08-05T13:40:21;47.28;41.49;52.82;;
70740;Laerm;58330;51.888;11.052;2022-08-05T13:42:48;49.38;41.97;60.67;;
70740;Laerm;58330;51.888;11.052;2022-08-05T13:45:15;49.11;42.59;53.90;;
70740;Laerm;58330;51.888;11.052;2022-08-05T13:47:43;53.94;41.05;79.12;;